Time;durP1;ratioP1;P1;durP2;ratioP2;P2;SDS_P1;SDS_P2;PMS_P1;PMS_P2;Temp;Humidity;BMP_temperature;BMP_pressure;BME280_temperature;BME280_humidity;BME280_pressure;Samples;Min_cycle;Max_cycle;Signal;HPM_P1;HPM_P2
2020/04/16 00:02:24;;;;;;;4.4;2.9;;;;;;;7.33;65.1416;941.3844;;;;
2020/04/16 00:04:56;;;;;;;5.9;3.2;;;;;;;7.14;65.87305;941.334;;;;
2020/04/16 00:09:41;;;;;;;5.3;2.5;;;;;;;6.94;66.82617;941.3883;;;;
2020/04/16 00:12:06;;;;;;;4.3;2.7;;;;;;;6.88;66.90723;941.4174;;;;
2020/04/16 00:14:31;;;;;;;5.6;3.7;;;;;;;6.95;67.05371;941.3924;;;;
2020/04/16 00:16:56;;;;;;;6.9;3.1;;;;;;;6.8;67.43945;941.3722;;;;
2020/04/16 00:19:23;;;;;;;6.4;2.4;;;;;;;6.66;67.87988;941.3276;;;;
2020/04/16 00:21:48;;;;;;;4.6;2.5;;;;;;;6.75;67.52148;941.3478;;;;
2020/04/16 00:24:14;;;;;;;4.8;2.5;;;;;;;6.74;68.07422;941.2573;;;;
2020/04/16 00:26:39;;;;;;;5.5;2.4;;;;;;;6.83;67.00195;941.2728;;;;
2020/04/16 00:29:05;;;;;;;6;2.4;;;;;;;6.6;67.73438;941.2742;;;;
2020/04/16 00:31:31;;;;;;;5.1;2.6;;;;;;;6.71;67.35742;941.231;;;;
2020/04/16 00:33:56;;;;;;;5.8;2.4;;;;;;;6.74;67.16895;941.2509;;;;
2020/04/16 00:36:22;;;;;;;4.3;2.4;;;;;;;6.49;68.06836;941.1446;;;;
2020/04/16 00:38:47;;;;;;;4.8;2.4;;;;;;;6.58;68.53613;941.1353;;;;
2020/04/16 00:41:14;;;;;;;4.7;2.1;;;;;;;6.55;67.16211;941.2065;;;;
2020/04/16 00:43:39;;;;;;;3.5;1.8;;;;;;;6.7;66.58594;941.1406;;;;
2020/04/16 00:46:05;;;;;;;5.1;2.2;;;;;;;6.64;67.91016;941.1872;;;;
2020/04/16 00:48:30;;;;;;;4;2;;;;;;;6.66;66.88477;941.111;;;;
2020/04/16 00:50:55;;;;;;;4.7;2;;;;;;;6.69;66.20996;941.0215;;;;
2020/04/16 00:53:21;;;;;;;4.3;2;;;;;;;6.43;66.75879;941.0203;;;;
2020/04/16 00:55:46;;;;;;;4.7;2;;;;;;;6.37;67.44824;941.0639;;;;
2020/04/16 00:58:12;;;;;;;6.9;2.5;;;;;;;6.29;68.40918;941.0206;;;;
2020/04/16 01:00:37;;;;;;;5.4;2.2;;;;;;;6.19;69.02637;940.9802;;;;
2020/04/16 01:03:02;;;;;;;4.6;2.3;;;;;;;6.34;68.71191;940.9698;;;;
2020/04/16 01:05:29;;;;;;;5.4;2.4;;;;;;;6.49;67.70703;940.9493;;;;
2020/04/16 01:07:54;;;;;;;4.9;2.5;;;;;;;6.59;67.41602;940.9702;;;;
2020/04/16 01:10:29;;;;;;;4.9;2.4;;;;;;;6.52;67.77832;940.878;;;;
2020/04/16 01:12:55;;;;;;;5.9;2.6;;;;;;;6.5;67.31348;940.9496;;;;
2020/04/16 01:15:20;;;;;;;4.4;2.4;;;;;;;6.56;67.0498;940.9551;;;;
2020/04/16 01:17:47;;;;;;;4.9;2.5;;;;;;;6.63;66.62012;940.9139;;;;
2020/04/16 01:20:13;;;;;;;4.8;2.7;;;;;;;6.53;66.86523;940.8886;;;;
2020/04/16 01:22:38;;;;;;;4.3;2.4;;;;;;;6.48;66.99219;940.7947;;;;
2020/04/16 01:25:03;;;;;;;5.3;2.5;;;;;;;6.4;67.34277;940.8965;;;;
2020/04/16 01:27:28;;;;;;;4.2;2.3;;;;;;;6.5;67.10938;940.8696;;;;
2020/04/16 01:29:54;;;;;;;12.2;3.4;;;;;;;6.51;66.8623;940.8154;;;;
2020/04/16 01:32:19;;;;;;;4.8;2.7;;;;;;;6.51;66.75879;940.6894;;;;
2020/04/16 01:34:45;;;;;;;4.3;2.3;;;;;;;6.43;67.1543;940.7949;;;;
2020/04/16 01:37:10;;;;;;;4.5;2.3;;;;;;;6.29;67.74219;940.7874;;;;
2020/04/16 01:39:37;;;;;;;5.1;2.5;;;;;;;6.24;67.9502;940.6705;;;;
2020/04/16 01:42:02;;;;;;;3.5;2.1;;;;;;;6.01;68.79395;940.7131;;;;
2020/04/16 01:44:28;;;;;;;3.6;2.1;;;;;;;5.72;70.06836;940.7094;;;;
2020/04/16 01:46:53;;;;;;;7.8;2.4;;;;;;;5.74;70.10547;940.6736;;;;
2020/04/16 01:49:19;;;;;;;6.5;2.5;;;;;;;5.87;69.8457;940.6607;;;;
2020/04/16 01:51:44;;;;;;;5.7;2.3;;;;;;;6.02;69.19141;940.7014;;;;
2020/04/16 01:54:10;;;;;;;3.9;2.3;;;;;;;5.98;69.10645;940.6953;;;;
2020/04/16 01:56:36;;;;;;;4.9;2.4;;;;;;;5.73;70.28613;940.6682;;;;
2020/04/16 01:59:02;;;;;;;6.3;2.2;;;;;;;5.84;69.81641;940.6526;;;;
2020/04/16 02:01:27;;;;;;;5;2.2;;;;;;;5.71;69.78516;940.6927;;;;
2020/04/16 02:03:53;;;;;;;3.9;2.3;;;;;;;5.6;70.47852;940.6566;;;;
2020/04/16 02:06:18;;;;;;;5.9;2.3;;;;;;;5.5;71.14844;940.673;;;;
2020/04/16 02:08:44;;;;;;;5.2;2.5;;;;;;;5.72;70.58789;940.6328;;;;
2020/04/16 02:11:09;;;;;;;7.6;2.3;;;;;;;5.78;69.96582;940.6348;;;;
2020/04/16 02:13:35;;;;;;;4.4;2.5;;;;;;;5.94;69.13379;940.6381;;;;
2020/04/16 02:16:01;;;;;;;7.4;2.6;;;;;;;5.89;69.0918;940.5697;;;;
2020/04/16 02:18:27;;;;;;;5.4;2.2;;;;;;;5.82;69.40723;940.5952;;;;
2020/04/16 02:20:52;;;;;;;5.3;2.4;;;;;;;5.8;69.24609;940.5976;;;;
2020/04/16 02:23:17;;;;;;;3.8;2.1;;;;;;;5.66;69.99023;940.6152;;;;
2020/04/16 02:25:43;;;;;;;4.6;2.5;;;;;;;5.6;70.23047;940.574;;;;
2020/04/16 02:28:08;;;;;;;6.9;3.1;;;;;;;5.59;70.38672;940.6033;;;;
2020/04/16 02:30:34;;;;;;;8.1;2.8;;;;;;;5.31;71.53613;940.6375;;;;
2020/04/16 02:32:59;;;;;;;9.6;2.7;;;;;;;5.31;71.65918;940.687;;;;
2020/04/16 02:35:25;;;;;;;40.3;34.3;;;;;;;5.31;71.58008;940.6841;;;;
2020/04/16 02:37:50;;;;;;;8.4;6.7;;;;;;;5.44;71.11719;940.7375;;;;
2020/04/16 02:40:18;;;;;;;6.1;2.4;;;;;;;5.46;71.13184;940.7435;;;;
2020/04/16 02:42:46;;;;;;;4.9;2.2;;;;;;;5.46;71.06543;940.7256;;;;
2020/04/16 02:45:07;;;;;;;4.7;2.4;;;;;;;5.55;70.85352;940.7347;;;;
2020/04/16 02:47:33;;;;;;;3.7;2.1;;;;;;;5.61;70.42383;940.8365;;;;
2020/04/16 02:49:58;;;;;;;4.1;2;;;;;;;5.57;70.29199;940.7778;;;;
2020/04/16 02:52:23;;;;;;;3.8;2.1;;;;;;;5.45;70.84766;940.741;;;;
2020/04/16 02:54:49;;;;;;;4;2.2;;;;;;;5.4;71.2002;940.7516;;;;
2020/04/16 02:57:14;;;;;;;4.6;2.3;;;;;;;5.48;70.78613;940.7594;;;;
2020/04/16 02:59:39;;;;;;;3.4;2.2;;;;;;;5.53;70.81641;940.7087;;;;
2020/04/16 03:02:06;;;;;;;6.2;2.2;;;;;;;5.64;71.02637;940.7197;;;;
2020/04/16 03:04:31;;;;;;;4;2.1;;;;;;;5.52;70.84863;940.7922;;;;
2020/04/16 03:06:57;;;;;;;5.3;2.5;;;;;;;5.54;70.99805;940.7463;;;;
2020/04/16 03:09:22;;;;;;;4.8;2.3;;;;;;;5.57;70.75488;940.6397;;;;
2020/04/16 03:11:48;;;;;;;4.2;2.4;;;;;;;5.59;69.96875;940.6531;;;;
2020/04/16 03:14:13;;;;;;;4.3;2.4;;;;;;;5.42;70.33398;940.6743;;;;
2020/04/16 03:16:40;;;;;;;5.6;2.5;;;;;;;5.47;70.81738;940.7321;;;;
2020/04/16 03:19:05;;;;;;;5.1;2.5;;;;;;;5.47;70.76172;940.7796;;;;
2020/04/16 03:21:31;;;;;;;5;2.7;;;;;;;5.35;70.82031;940.709;;;;
2020/04/16 03:23:56;;;;;;;6.4;2.9;;;;;;;5.32;71.15234;940.7261;;;;
2020/04/16 03:26:22;;;;;;;5.4;3.1;;;;;;;5.19;71.57129;940.693;;;;
2020/04/16 03:28:47;;;;;;;9.4;3.3;;;;;;;5.13;72.02441;940.6864;;;;
2020/04/16 03:31:14;;;;;;;6.3;3;;;;;;;5.16;72.08594;940.7512;;;;
2020/04/16 03:33:39;;;;;;;3.4;2.2;;;;;;;5.07;72.24902;940.7883;;;;
2020/04/16 03:36:05;;;;;;;4.9;2.4;;;;;;;5.07;72.45313;940.8035;;;;
2020/04/16 03:38:30;;;;;;;5.3;2.3;;;;;;;4.98;72.58496;940.7332;;;;
2020/04/16 03:40:56;;;;;;;6.2;2.3;;;;;;;4.8;73.29785;940.7628;;;;
2020/04/16 03:43:21;;;;;;;7.8;2.8;;;;;;;4.78;73.26074;940.7568;;;;
2020/04/16 03:45:49;;;;;;;6.4;3.3;;;;;;;4.88;72.98438;940.7881;;;;
2020/04/16 03:48:14;;;;;;;8.5;5.1;;;;;;;4.91;72.75293;940.7908;;;;
2020/04/16 03:50:39;;;;;;;14;7.1;;;;;;;4.89;72.80566;940.7908;;;;
2020/04/16 03:53:04;;;;;;;11.9;7.4;;;;;;;4.91;72.39258;940.7897;;;;
2020/04/16 03:55:29;;;;;;;12.7;7.6;;;;;;;4.76;72.86133;940.7645;;;;
2020/04/16 03:57:55;;;;;;;11;7.3;;;;;;;4.79;73.0127;940.8145;;;;
2020/04/16 04:02:31;;;;;;;9.9;5.4;;;;;;;4.9;72.36914;940.7605;;;;
2020/04/16 04:04:56;;;;;;;7.3;4.1;;;;;;;5.05;71.93164;940.7942;;;;
2020/04/16 04:07:21;;;;;;;7.1;2.9;;;;;;;5.04;71.44531;940.6962;;;;
2020/04/16 04:09:46;;;;;;;4.3;2.4;;;;;;;5.24;70.48535;940.7234;;;;
2020/04/16 04:12:11;;;;;;;9;2.8;;;;;;;5.41;69.82617;940.7064;;;;
2020/04/16 04:14:36;;;;;;;10.3;2.9;;;;;;;5.42;69.71387;940.6672;;;;
2020/04/16 04:17:01;;;;;;;7.9;3;;;;;;;5.32;70.10547;940.7831;;;;
2020/04/16 04:19:26;;;;;;;22.9;5;;;;;;;5.35;70.11133;940.7556;;;;
2020/04/16 04:21:52;;;;;;;36.9;5.9;;;;;;;5.11;71.34375;940.8513;;;;
2020/04/16 04:24:17;;;;;;;16.1;8;;;;;;;4.82;72.29785;940.8127;;;;
2020/04/16 04:26:42;;;;;;;14.8;6.3;;;;;;;4.75;72.77148;940.7802;;;;
2020/04/16 04:29:07;;;;;;;10.4;5.2;;;;;;;4.66;73.09375;940.7463;;;;
2020/04/16 04:31:33;;;;;;;12.7;5.6;;;;;;;4.89;72.36621;940.7773;;;;
2020/04/16 04:33:58;;;;;;;11.8;4.3;;;;;;;4.86;72.38281;940.8109;;;;
2020/04/16 04:36:25;;;;;;;12.6;4.4;;;;;;;4.93;72.75586;940.8499;;;;
2020/04/16 04:41:15;;;;;;;13.5;4.5;;;;;;;5;71.85547;940.8127;;;;
2020/04/16 04:43:48;;;;;;;9.6;4.1;;;;;;;4.82;72.6709;940.7964;;;;
2020/04/16 04:46:05;;;;;;;14.2;4.2;;;;;;;4.79;72.98047;940.8518;;;;
2020/04/16 04:48:30;;;;;;;12.1;4.3;;;;;;;4.97;72.2793;940.8716;;;;
2020/04/16 04:50:56;;;;;;;13;4.3;;;;;;;5;71.80078;940.8198;;;;
2020/04/16 04:53:21;;;;;;;20.5;5.5;;;;;;;5.06;71.56152;940.8088;;;;
2020/04/16 04:55:47;;;;;;;12.8;3.8;;;;;;;5.18;71.12988;940.9785;;;;
2020/04/16 04:58:13;;;;;;;13.1;4.2;;;;;;;5.29;70.41504;940.9105;;;;
2020/04/16 05:00:38;;;;;;;20.3;4.8;;;;;;;5.19;70.55664;940.8856;;;;
2020/04/16 05:03:03;;;;;;;11;3.5;;;;;;;5.28;70.14258;940.8873;;;;
2020/04/16 05:05:30;;;;;;;8.9;3.5;;;;;;;5.43;69.94238;940.9275;;;;
2020/04/16 05:07:55;;;;;;;12.5;3.5;;;;;;;5.5;69.75098;940.9054;;;;
2020/04/16 05:10:21;;;;;;;10.7;3.3;;;;;;;5.51;69.75293;940.8591;;;;
2020/04/16 05:12:46;;;;;;;11;3.4;;;;;;;5.47;69.56641;940.8507;;;;
2020/04/16 05:15:11;;;;;;;7.9;3.4;;;;;;;5.31;70.23926;940.7905;;;;
2020/04/16 05:17:37;;;;;;;12.9;3.8;;;;;;;5.37;70.47363;940.8367;;;;
2020/04/16 05:20:02;;;;;;;9.1;3.4;;;;;;;5.43;70.11328;940.8447;;;;
2020/04/16 05:22:28;;;;;;;13.2;3.5;;;;;;;5.49;70.2334;940.8796;;;;
2020/04/16 05:24:54;;;;;;;12.4;3.4;;;;;;;5.6;69.83496;940.8478;;;;
2020/04/16 05:27:19;;;;;;;15.6;4;;;;;;;5.76;69.02637;940.8427;;;;
2020/04/16 05:29:44;;;;;;;10.1;4.5;;;;;;;5.63;69.70508;940.8333;;;;
2020/04/16 05:32:09;;;;;;;22.5;6.2;;;;;;;5.68;69.73535;940.8157;;;;
2020/04/16 05:34:36;;;;;;;22.4;6.3;;;;;;;5.89;69.48828;940.8591;;;;
2020/04/16 05:37:01;;;;;;;12.7;4.6;;;;;;;7.03;65.92285;940.8987;;;;
2020/04/16 05:39:27;;;;;;;14.8;4;;;;;;;8.84;60.34473;940.847;;;;
2020/04/16 05:41:52;;;;;;;19.7;5.1;;;;;;;10.72;54.08496;940.9524;;;;
2020/04/16 05:44:19;;;;;;;38.6;7.2;;;;;;;12.47;48.74121;940.8812;;;;
2020/04/16 05:46:44;;;;;;;35.9;7;;;;;;;14.05;44.94727;940.853;;;;
2020/04/16 05:49:13;;;;;;;37.6;8;;;;;;;15.27;41.48438;940.9086;;;;
2020/04/16 05:51:50;;;;;;;33.1;6.7;;;;;;;16.36;39.71289;940.9451;;;;
2020/04/16 05:54:04;;;;;;;27.6;6.4;;;;;;;17.55;37.40723;940.824;;;;
2020/04/16 05:56:45;;;;;;;42.4;7.4;;;;;;;18.14;35.43652;940.8256;;;;
2020/04/16 05:58:50;;;;;;;51.2;7.7;;;;;;;19.01;34.07422;940.8669;;;;
2020/04/16 06:01:17;;;;;;;37;6.6;;;;;;;20.11;32.78223;940.8759;;;;
2020/04/16 06:03:42;;;;;;;35.9;6.7;;;;;;;20.79;31.74512;940.8773;;;;
2020/04/16 06:06:08;;;;;;;42;6.6;;;;;;;20.65;31.92285;940.8986;;;;
2020/04/16 06:08:33;;;;;;;33.3;6.3;;;;;;;21.15;30.39063;940.8321;;;;
2020/04/16 06:10:59;;;;;;;25.4;5.2;;;;;;;21.74;30.34961;940.7905;;;;
2020/04/16 06:13:24;;;;;;;32.9;6.1;;;;;;;22.5;28.64063;940.7781;;;;
2020/04/16 06:15:50;;;;;;;24;4.8;;;;;;;22.24;28.83496;940.8259;;;;
2020/04/16 06:18:15;;;;;;;19.6;3.8;;;;;;;22.39;27.63672;940.8301;;;;
2020/04/16 06:20:41;;;;;;;14.9;3.7;;;;;;;22.59;27.62598;940.71;;;;
2020/04/16 06:23:06;;;;;;;27.2;4.4;;;;;;;22.76;26.7793;940.7478;;;;
2020/04/16 06:25:33;;;;;;;18.6;3.7;;;;;;;23.37;26.61621;940.8018;;;;
2020/04/16 06:27:58;;;;;;;8.3;2.7;;;;;;;22.82;26.52441;940.7502;;;;
2020/04/16 06:30:24;;;;;;;15.2;3.1;;;;;;;23.22;27.3125;940.7294;;;;
2020/04/16 06:32:49;;;;;;;6.7;1.8;;;;;;;23.02;26.64258;940.7085;;;;
2020/04/16 06:35:15;;;;;;;2.4;1.2;;;;;;;23.89;25.55273;940.7543;;;;
2020/04/16 06:37:40;;;;;;;2.5;1.1;;;;;;;23.11;26.2832;940.7286;;;;
2020/04/16 06:40:06;;;;;;;2.8;1.2;;;;;;;22.73;26.19043;940.7584;;;;
2020/04/16 06:42:30;;;;;;;4.5;1.3;;;;;;;23.51;24.15527;940.774;;;;
2020/04/16 06:44:55;;;;;;;4.6;1.3;;;;;;;23.83;24.94922;940.7982;;;;
2020/04/16 06:47:22;;;;;;;5.3;1.5;;;;;;;24.79;23.77637;940.7723;;;;
2020/04/16 06:49:47;;;;;;;5.2;1.3;;;;;;;23.3;25.38965;940.7188;;;;
2020/04/16 06:52:13;;;;;;;3.2;1.3;;;;;;;23.81;24.75977;940.7173;;;;
2020/04/16 06:54:38;;;;;;;4.1;1.2;;;;;;;23.44;25.41016;940.6075;;;;
2020/04/16 06:57:05;;;;;;;2.8;1.2;;;;;;;22.56;25.62891;940.6325;;;;
2020/04/16 06:59:30;;;;;;;4.2;1.2;;;;;;;22.57;25.44238;940.5272;;;;
2020/04/16 07:01:56;;;;;;;3.8;1.3;;;;;;;23.1;26.17676;940.5422;;;;
2020/04/16 07:04:21;;;;;;;3.5;1.5;;;;;;;23.41;24.43164;940.5237;;;;
2020/04/16 07:06:48;;;;;;;2.8;1.3;;;;;;;23.31;24.12012;940.5391;;;;
2020/04/16 07:09:13;;;;;;;5.4;1.3;;;;;;;22.72;26.94141;940.4147;;;;
2020/04/16 07:11:39;;;;;;;10.4;1.6;;;;;;;22.88;28.19531;940.4464;;;;
2020/04/16 07:14:05;;;;;;;4.5;1.2;;;;;;;24.14;25.22559;940.4772;;;;
2020/04/16 07:16:32;;;;;;;5.5;1.2;;;;;;;25.97;21.40332;940.4355;;;;
2020/04/16 07:18:57;;;;;;;4.7;1.2;;;;;;;26.31;20.29492;940.3853;;;;
2020/04/16 07:21:23;;;;;;;12.5;2.3;;;;;;;26.75;20.82422;940.351;;;;
2020/04/16 07:23:48;;;;;;;33.1;5.3;;;;;;;27.49;19.70703;940.3708;;;;
2020/04/16 07:26:14;;;;;;;16.1;3;;;;;;;28.56;19.41016;940.302;;;;
2020/04/16 07:28:39;;;;;;;7.5;1.9;;;;;;;29;17.51172;940.2709;;;;
2020/04/16 07:31:04;;;;;;;4.5;1.6;;;;;;;29.21;18.1748;940.2155;;;;
2020/04/16 07:33:30;;;;;;;3.5;1.3;;;;;;;30.16;18.03516;940.2503;;;;
2020/04/16 07:35:55;;;;;;;5.1;1.7;;;;;;;30.89;17.22656;940.1599;;;;
2020/04/16 07:38:20;;;;;;;3.3;1.3;;;;;;;30.84;16.56738;940.1221;;;;
2020/04/16 07:40:46;;;;;;;4.6;1.3;;;;;;;29.19;17.15039;940.0956;;;;
2020/04/16 07:43:11;;;;;;;5.1;1.8;;;;;;;30.32;16.3457;940.0859;;;;
2020/04/16 07:45:37;;;;;;;8.1;2.2;;;;;;;31.55;16.38965;940.0491;;;;
2020/04/16 07:48:02;;;;;;;5.7;1.3;;;;;;;31.83;14.99805;940.0739;;;;
2020/04/16 07:50:30;;;;;;;2.1;1.1;;;;;;;32.52;15.20117;940.0342;;;;
2020/04/16 07:52:55;;;;;;;3.3;1.1;;;;;;;32.74;15.19629;939.9719;;;;
2020/04/16 07:55:21;;;;;;;3.3;1.3;;;;;;;31.85;13.89648;940.0187;;;;
2020/04/16 07:57:46;;;;;;;2.5;1.1;;;;;;;32.23;15.62305;939.9345;;;;
2020/04/16 08:00:13;;;;;;;4.6;1.4;;;;;;;33.4;14.02832;939.9099;;;;
2020/04/16 08:02:38;;;;;;;5.5;1.5;;;;;;;31.69;14.8623;939.875;;;;
2020/04/16 08:05:05;;;;;;;5.7;1.3;;;;;;;30.24;15.93652;939.8773;;;;
2020/04/16 08:07:30;;;;;;;3.1;1.3;;;;;;;29.91;15.9375;939.8164;;;;
2020/04/16 08:09:55;;;;;;;3.1;1.3;;;;;;;30.14;15.80176;939.8033;;;;
2020/04/16 08:12:22;;;;;;;3.4;1.2;;;;;;;29.51;16.12598;939.7878;;;;
2020/04/16 08:17:17;;;;;;;4.2;1.2;;;;;;;30.6;15.33984;939.7119;;;;
2020/04/16 08:19:44;;;;;;;2.9;1.2;;;;;;;29.25;16.97363;939.7073;;;;
2020/04/16 08:22:02;;;;;;;6.5;1.2;;;;;;;30.67;15.43848;939.685;;;;
2020/04/16 08:24:28;;;;;;;3.1;1.1;;;;;;;30.45;15.27539;939.718;;;;
2020/04/16 08:26:53;;;;;;;1.9;1;;;;;;;32.04;15.62793;939.6344;;;;
2020/04/16 08:29:18;;;;;;;3;1.1;;;;;;;31.63;15.4834;939.7386;;;;
2020/04/16 08:31:43;;;;;;;5.2;1;;;;;;;31.43;14.31445;939.7263;;;;
2020/04/16 08:34:08;;;;;;;2.2;1;;;;;;;31.12;15.93164;939.7212;;;;
2020/04/16 08:36:35;;;;;;;2.4;1.1;;;;;;;33.16;14.27344;939.6636;;;;
2020/04/16 08:39:00;;;;;;;3.3;1.2;;;;;;;33.04;15.00293;939.6263;;;;
2020/04/16 08:41:27;;;;;;;3.3;1;;;;;;;34.04;12.7959;939.6028;;;;
2020/04/16 08:43:52;;;;;;;3.1;1.1;;;;;;;34.25;14.42773;939.6236;;;;
2020/04/16 08:46:18;;;;;;;2.2;1;;;;;;;35.16;12.52637;939.5651;;;;
2020/04/16 08:48:43;;;;;;;2.9;1;;;;;;;34.9;13.33887;939.5255;;;;
2020/04/16 08:51:10;;;;;;;1.8;0.9;;;;;;;34.68;12.62109;939.5597;;;;
2020/04/16 08:53:35;;;;;;;1.8;1;;;;;;;34;13.93848;939.4982;;;;
2020/04/16 08:56:02;;;;;;;1.4;0.9;;;;;;;33.96;13.32324;939.479;;;;
2020/04/16 08:58:27;;;;;;;2.4;0.9;;;;;;;34.06;13.72363;939.4378;;;;
2020/04/16 09:00:54;;;;;;;3.8;1.1;;;;;;;34.12;14.32715;939.4269;;;;
2020/04/16 09:03:19;;;;;;;5.7;1.3;;;;;;;34.28;13.6582;939.4203;;;;
2020/04/16 09:05:45;;;;;;;4.3;1.1;;;;;;;33.79;13.70313;939.3703;;;;
2020/04/16 09:08:11;;;;;;;6;1.3;;;;;;;33.42;14.72656;939.3194;;;;
2020/04/16 09:10:37;;;;;;;3;1.1;;;;;;;33.13;14.75293;939.3423;;;;
2020/04/16 09:13:02;;;;;;;2.8;1;;;;;;;32.94;15.09473;939.3317;;;;
2020/04/16 09:15:30;;;;;;;3.5;1.1;;;;;;;32.94;15.21484;939.3477;;;;
2020/04/16 09:17:56;;;;;;;2.1;1;;;;;;;32.84;14.82813;939.3633;;;;
2020/04/16 09:20:22;;;;;;;2.3;1.1;;;;;;;32.05;15.62891;939.3008;;;;
2020/04/16 09:22:47;;;;;;;2.9;1;;;;;;;31.83;14.43555;939.2028;;;;
2020/04/16 09:25:14;;;;;;;2.5;1.1;;;;;;;31.59;15.44531;939.2228;;;;
2020/04/16 09:27:39;;;;;;;3.8;1;;;;;;;31.85;15.23828;939.2028;;;;
2020/04/16 09:30:06;;;;;;;2.9;1.1;;;;;;;31.77;14.76855;939.1573;;;;
2020/04/16 09:32:31;;;;;;;3.9;1.1;;;;;;;31.93;15.70801;939.1294;;;;
2020/04/16 09:34:56;;;;;;;3.8;1.3;;;;;;;31.56;16.30664;939.2171;;;;
2020/04/16 09:37:21;;;;;;;4.9;1.2;;;;;;;31.41;16.39648;939.1107;;;;
2020/04/16 09:39:47;;;;;;;3.6;1.2;;;;;;;30.17;16.85352;939.113;;;;
2020/04/16 09:42:12;;;;;;;4.7;1.3;;;;;;;29.35;18.74121;939.1303;;;;
2020/04/16 09:44:37;;;;;;;4.2;1.2;;;;;;;29.79;17.20898;939.0616;;;;
2020/04/16 09:47:04;;;;;;;3.5;1.2;;;;;;;30.08;17.25586;939.0513;;;;
2020/04/16 09:49:29;;;;;;;7.2;1.4;;;;;;;30.1;18.7959;939.0226;;;;
2020/04/16 09:51:56;;;;;;;2.8;1.2;;;;;;;29.93;17.48828;939.007;;;;
2020/04/16 09:54:21;;;;;;;2.7;1.3;;;;;;;29.35;18.87207;938.9475;;;;
2020/04/16 09:56:47;;;;;;;2.8;1.4;;;;;;;28.36;20.38867;938.9813;;;;
2020/04/16 09:59:12;;;;;;;4.8;1.4;;;;;;;27.82;19.95996;938.9852;;;;
2020/04/16 10:01:38;;;;;;;7.1;1.5;;;;;;;27.5;19.94531;939.0097;;;;
2020/04/16 10:04:03;;;;;;;4.4;1.4;;;;;;;27.39;21.49512;939.0692;;;;
2020/04/16 10:06:31;;;;;;;8;1.8;;;;;;;27.21;21.78223;938.9568;;;;
2020/04/16 10:08:55;;;;;;;8;1.8;;;;;;;27.79;20.40918;938.9182;;;;
2020/04/16 10:11:24;;;;;;;4.1;1.8;;;;;;;27.43;21.65039;938.8709;;;;
2020/04/16 10:13:49;;;;;;;3.6;1.8;;;;;;;27.77;20.13574;938.8064;;;;
2020/04/16 10:16:15;;;;;;;3.9;1.9;;;;;;;27.63;20.65137;938.7811;;;;
2020/04/16 10:18:40;;;;;;;3;1.6;;;;;;;27.15;20.26172;938.8284;;;;
2020/04/16 10:21:06;;;;;;;41.4;13.4;;;;;;;27.97;20.97559;938.7534;;;;
2020/04/16 10:23:31;;;;;;;9.8;3.4;;;;;;;28.25;20.0498;938.6674;;;;
2020/04/16 10:25:58;;;;;;;6.9;2.4;;;;;;;28.14;19.9502;938.5924;;;;
2020/04/16 10:28:23;;;;;;;3.4;1.5;;;;;;;28.04;20.15918;938.5745;;;;
2020/04/16 10:30:49;;;;;;;2.5;1.4;;;;;;;28.17;20.7959;938.6647;;;;
2020/04/16 10:33:14;;;;;;;2.1;1.5;;;;;;;28.25;19.68164;938.6222;;;;
2020/04/16 10:35:40;;;;;;;2.6;1.5;;;;;;;28.05;19.58984;938.6367;;;;
2020/04/16 10:38:05;;;;;;;4.2;1.6;;;;;;;27.74;20.30078;938.6834;;;;
2020/04/16 10:40:32;;;;;;;3.9;1.6;;;;;;;27.92;19.70313;938.6258;;;;
2020/04/16 10:42:57;;;;;;;2.4;1.5;;;;;;;28.14;19.83105;938.5122;;;;
2020/04/16 10:45:26;;;;;;;2.7;1.6;;;;;;;28.51;18.95605;938.6088;;;;
2020/04/16 10:47:51;;;;;;;2.8;1.7;;;;;;;28.6;19.78027;938.5606;;;;
2020/04/16 10:50:17;;;;;;;2.8;1.5;;;;;;;28.64;18.42578;938.5712;;;;
2020/04/16 10:52:42;;;;;;;2.6;1.5;;;;;;;28.49;20.5127;938.4805;;;;
2020/04/16 10:55:09;;;;;;;2.4;1.5;;;;;;;28.41;19.58105;938.4952;;;;
2020/04/16 10:57:34;;;;;;;3.9;1.6;;;;;;;28.54;19.11133;938.5131;;;;
2020/04/16 11:00:00;;;;;;;3.4;1.7;;;;;;;28.43;20.01074;938.5078;;;;
2020/04/16 11:02:25;;;;;;;3.6;1.8;;;;;;;28.49;19.07422;938.4389;;;;
2020/04/16 11:04:50;;;;;;;2.2;1.5;;;;;;;27.94;19.18066;938.49;;;;
2020/04/16 11:07:15;;;;;;;3.1;1.8;;;;;;;27.35;21.59961;938.478;;;;
2020/04/16 11:09:40;;;;;;;4.3;1.7;;;;;;;27.51;21.46484;938.4938;;;;
2020/04/16 11:12:05;;;;;;;2.7;1.8;;;;;;;27.42;20.16699;938.423;;;;
2020/04/16 11:14:31;;;;;;;3.3;1.7;;;;;;;27.96;19.56152;938.3225;;;;
2020/04/16 11:16:56;;;;;;;4.3;1.9;;;;;;;28.25;19.25391;938.407;;;;
2020/04/16 11:19:21;;;;;;;3.3;1.8;;;;;;;28.66;18.92578;938.3694;;;;
2020/04/16 11:21:46;;;;;;;4.1;1.9;;;;;;;27.94;20.82031;938.2985;;;;
2020/04/16 11:24:11;;;;;;;4.6;1.9;;;;;;;27.86;20.9707;938.1994;;;;
2020/04/16 11:26:36;;;;;;;3.6;1.9;;;;;;;27.32;21.59766;938.2723;;;;
2020/04/16 11:29:01;;;;;;;4;1.9;;;;;;;27.27;22.5918;938.2679;;;;
2020/04/16 11:31:29;;;;;;;5.6;1.8;;;;;;;27.47;21.29688;938.2569;;;;
2020/04/16 11:33:58;;;;;;;4.2;2.2;;;;;;;27.29;22.14258;938.1785;;;;
2020/04/16 11:36:23;;;;;;;8.8;2;;;;;;;27.03;22.86426;938.1891;;;;
2020/04/16 11:38:44;;;;;;;4;2.1;;;;;;;26.82;22.59277;938.1727;;;;
2020/04/16 11:41:10;;;;;;;6.1;2.1;;;;;;;27.19;22.48145;938.2293;;;;
2020/04/16 11:43:35;;;;;;;7.2;2.1;;;;;;;27.4;22.88281;938.2188;;;;
2020/04/16 11:46:03;;;;;;;5.1;2.2;;;;;;;27.56;23.06934;938.1299;;;;
2020/04/16 11:48:26;;;;;;;6.5;2.4;;;;;;;27.51;22.61523;938.1445;;;;
2020/04/16 11:50:54;;;;;;;4.8;2.1;;;;;;;27.46;23.37305;938.0997;;;;
2020/04/16 11:53:18;;;;;;;3.6;2.1;;;;;;;27.15;23.42773;938.1027;;;;
2020/04/16 11:55:43;;;;;;;6.3;2.2;;;;;;;27.27;22.11816;938.109;;;;
2020/04/16 11:58:08;;;;;;;5.1;2.4;;;;;;;26.65;23.65039;938.1399;;;;
2020/04/16 12:00:34;;;;;;;6.1;2.4;;;;;;;26.66;24.05371;938.085;;;;
2020/04/16 12:02:59;;;;;;;5;2.2;;;;;;;26.96;23.53613;938.0447;;;;
2020/04/16 12:05:24;;;;;;;5.7;2.3;;;;;;;27.05;23.12598;938.0583;;;;
2020/04/16 12:07:49;;;;;;;4.1;2.3;;;;;;;26.82;24.90332;938.0818;;;;
2020/04/16 12:10:14;;;;;;;4;2.3;;;;;;;27.56;22.77246;938.0694;;;;
2020/04/16 12:12:39;;;;;;;4.5;2.3;;;;;;;26.89;22.02734;938.0894;;;;
2020/04/16 12:15:04;;;;;;;6.5;2.3;;;;;;;26.74;24.30664;938.0683;;;;
2020/04/16 12:17:31;;;;;;;5.6;2.5;;;;;;;26.42;23.3418;938.1003;;;;
2020/04/16 12:19:56;;;;;;;3.6;2.2;;;;;;;26.28;24.48242;938.1531;;;;
2020/04/16 12:22:22;;;;;;;4.4;2;;;;;;;26.95;23.26367;938.0587;;;;
2020/04/16 12:24:47;;;;;;;4.8;2.3;;;;;;;25.97;25.1748;938.0774;;;;
2020/04/16 12:27:13;;;;;;;8.2;2.4;;;;;;;25.63;25.29785;938.0916;;;;
2020/04/16 12:29:38;;;;;;;6.5;2.3;;;;;;;25.82;24.78809;938.0515;;;;
2020/04/16 12:32:03;;;;;;;4.9;2.2;;;;;;;26.02;24.37402;938.0742;;;;
2020/04/16 12:34:28;;;;;;;4.1;2.4;;;;;;;25.89;24.34375;938.0385;;;;
2020/04/16 12:36:53;;;;;;;3.4;2.1;;;;;;;26.17;23.74316;938.0555;;;;
2020/04/16 12:39:18;;;;;;;5.8;2.6;;;;;;;25.87;23.38477;937.9838;;;;
2020/04/16 12:41:44;;;;;;;4;2.3;;;;;;;26.17;23.41211;938.0131;;;;
2020/04/16 12:44:09;;;;;;;4.4;2.1;;;;;;;26.58;23.68164;937.9846;;;;
2020/04/16 12:46:34;;;;;;;5.2;2.1;;;;;;;26.1;24.21289;938.0069;;;;
2020/04/16 12:48:59;;;;;;;4;2.1;;;;;;;26.22;23.02441;937.884;;;;
2020/04/16 12:51:24;;;;;;;4;2.3;;;;;;;25.68;24.0127;937.9216;;;;
2020/04/16 12:53:50;;;;;;;4.7;2.5;;;;;;;25.69;25.86816;937.9673;;;;
2020/04/16 12:56:15;;;;;;;5.2;2.6;;;;;;;25.86;24.12891;937.8728;;;;
2020/04/16 12:58:40;;;;;;;3.7;2.3;;;;;;;25.03;25.91309;937.856;;;;
2020/04/16 13:01:06;;;;;;;5.8;2.4;;;;;;;25.34;23.94727;937.7551;;;;
2020/04/16 13:03:31;;;;;;;5.8;2.3;;;;;;;25.3;26.07129;937.7561;;;;
2020/04/16 13:05:56;;;;;;;4.4;2.1;;;;;;;25.49;24.59277;937.745;;;;
2020/04/16 13:08:23;;;;;;;5.3;2.6;;;;;;;25.42;26.78613;937.7064;;;;
2020/04/16 13:10:48;;;;;;;5.1;2.6;;;;;;;25.73;24.31152;937.7106;;;;
2020/04/16 13:13:14;;;;;;;7.5;2.6;;;;;;;25.02;26.10156;937.6251;;;;
2020/04/16 13:15:39;;;;;;;5.2;2.8;;;;;;;25.09;25.52734;937.5891;;;;
2020/04/16 13:18:05;;;;;;;6.8;2.6;;;;;;;25.15;24.51563;937.6002;;;;
2020/04/16 13:20:30;;;;;;;6.3;3.3;;;;;;;25.11;27.0625;937.6031;;;;
2020/04/16 13:23:04;;;;;;;7.7;3;;;;;;;24.77;26.58203;937.5916;;;;
2020/04/16 13:25:20;;;;;;;8.5;3.5;;;;;;;24.7;26.12988;937.5686;;;;
2020/04/16 13:27:45;;;;;;;7.5;3.3;;;;;;;24.66;25.60938;937.6272;;;;
2020/04/16 13:30:11;;;;;;;6.3;2.8;;;;;;;24.75;26.37988;937.5778;;;;
2020/04/16 13:32:36;;;;;;;6.1;3;;;;;;;24.61;26.26563;937.6239;;;;
2020/04/16 13:35:01;;;;;;;6.4;2.7;;;;;;;24.62;25.11133;937.6258;;;;
2020/04/16 13:37:26;;;;;;;6.8;3;;;;;;;24.7;26.67188;937.6135;;;;
2020/04/16 13:39:52;;;;;;;5.8;2.6;;;;;;;24.46;27.17676;937.6055;;;;
2020/04/16 13:42:17;;;;;;;5.4;2.8;;;;;;;24.2;26.05371;937.6299;;;;
2020/04/16 13:44:44;;;;;;;6.8;2.9;;;;;;;23.99;28.08984;937.6411;;;;
2020/04/16 13:47:09;;;;;;;4.6;2.7;;;;;;;24.15;27.55762;937.6055;;;;
2020/04/16 13:49:34;;;;;;;6;2.8;;;;;;;24.13;27.52148;937.5377;;;;
2020/04/16 13:51:59;;;;;;;7.1;2.7;;;;;;;24.13;26.8623;937.5273;;;;
2020/04/16 13:54:24;;;;;;;9.1;2.9;;;;;;;23.91;27.20117;937.5294;;;;
2020/04/16 13:56:49;;;;;;;7.1;3;;;;;;;23.64;27.83203;937.5803;;;;
2020/04/16 13:59:14;;;;;;;5;2.9;;;;;;;23.62;28.23145;937.5913;;;;
2020/04/16 14:01:40;;;;;;;7;2.8;;;;;;;23.53;29.20117;937.5714;;;;
2020/04/16 14:04:05;;;;;;;6.1;3.2;;;;;;;23.44;27.20898;937.5545;;;;
2020/04/16 14:06:30;;;;;;;7.8;2.6;;;;;;;23.16;28.74316;937.5215;;;;
2020/04/16 14:08:55;;;;;;;9;3.2;;;;;;;23.02;29.14453;937.4151;;;;
2020/04/16 14:11:20;;;;;;;4.8;2.9;;;;;;;22.96;28.25977;937.4684;;;;
2020/04/16 14:13:45;;;;;;;6.4;3;;;;;;;22.97;29.34082;937.5193;;;;
2020/04/16 14:16:12;;;;;;;8.2;3.2;;;;;;;22.93;28.58691;937.5345;;;;
2020/04/16 14:18:37;;;;;;;5.7;2.6;;;;;;;23.05;28.86426;937.6099;;;;
2020/04/16 14:21:03;;;;;;;7;3;;;;;;;23.34;27.82617;937.5706;;;;
2020/04/16 14:23:28;;;;;;;8.4;3.1;;;;;;;22.98;28.91895;937.5115;;;;
2020/04/16 14:25:54;;;;;;;6.5;3;;;;;;;23.05;28.45313;937.5204;;;;
2020/04/16 14:28:20;;;;;;;5.4;2.9;;;;;;;23.27;26.86914;937.5347;;;;